Monday, December 18, 2017, 9:32 AM EST
Back to Local

KOXB, Ocean City Municipal Airport

Location: Berlin, MD, United States Lat: 38.317
Local Time: 9:32 AM EST (14:32 GMT) Lon: -75.117
Time Zone: US/Eastern Elev: 13 ft

Show me the last for .
Show Decoded

2017-12-18 08:53 METAR KOXB 181353Z AUTO 28004KT 10SM CLR 07/04 A3012 RMK AO2 SLP200 T00670039 =
2017-12-18 07:53 METAR KOXB 181253Z AUTO 22003KT 8SM SCT055 04/03 A3013 RMK AO2 SLP201 T00390028
                 =
2017-12-18 06:53 METAR KOXB 181153Z AUTO 00000KT 10SM OVC060 04/03 A3013 RMK AO2 SLP202 T00440033
                 10067 20044 53003 =
2017-12-18 05:53 METAR KOXB 181053Z AUTO 25003KT 10SM OVC065 06/03 A3013 RMK AO2 SLP202 T00560033
                 =
2017-12-18 04:53 METAR KOXB 180953Z AUTO 24003KT 10SM OVC075 06/03 A3012 RMK AO2 SLP199 T00560033
                 =
2017-12-18 03:53 METAR KOXB 180853Z AUTO 22003KT 10SM OVC085 06/04 A3012 RMK AO2 SLP200 T00560039
                 58009 =
2017-12-18 02:53 METAR KOXB 180753Z AUTO 21003KT 10SM FEW065 OVC085 06/04 A3013 RMK AO2 SLP204
                 T00560039 =
2017-12-18 01:53 METAR KOXB 180653Z AUTO 00000KT 10SM OVC065 07/04 A3015 RMK AO2 SLP210 T00670039
                 =
2017-12-18 00:53 METAR KOXB 180553Z AUTO 24004KT 10SM OVC075 07/05 A3015 RMK AO2 SLP208 60000
                 T00670050 10072 20050 56013 =
2017-12-17 23:53 METAR KOXB 180453Z AUTO 24003KT 9SM OVC080 06/06 A3016 RMK AO2 SLP213 T00610056
                 401001017 =
2017-12-17 22:53 METAR KOXB 180353Z AUTO 00000KT 9SM BKN085 OVC110 06/05 A3017 RMK AO2 SLP215
                 T00560050 =
2017-12-17 21:53 METAR KOXB 180253Z AUTO 00000KT 10SM FEW055 BKN075 OVC090 06/05 A3019 RMK AO2
                 SLP222 60000 T00560050 58021 =
2017-12-17 20:53 METAR KOXB 180153Z AUTO 00000KT 10SM BKN065 BKN080 OVC100 06/04 A3021 RMK AO2
                 RAB29E52 SLP231 P0000 T00560044 =
2017-12-17 19:53 METAR KOXB 180053Z AUTO 00000KT 10SM OVC100 06/03 A3023 RMK AO2 SLP236 T00560033
                 =
2017-12-17 18:53 METAR KOXB 172353Z AUTO 00000KT 10SM OVC100 06/03 A3025 RMK AO2 SLP243 T00560033
                 10100 20056 53011 =
2017-12-17 17:53 METAR KOXB 172253Z AUTO 00000KT 10SM CLR 06/03 A3022 RMK AO2 SLP232 T00610033 =
2017-12-17 16:53 METAR KOXB 172153Z AUTO 00000KT 10SM SCT120 06/03 A3020 RMK AO2 SLP227 T00610033
                 =
2017-12-17 15:53 METAR KOXB 172053Z AUTO 00000KT 10SM OVC100 08/03 A3022 RMK AO2 SLP232 T00780028
                 56009 =
2017-12-17 14:53 METAR KOXB 171953Z AUTO 24004KT 10SM BKN120 07/03 A3022 RMK AO2 SLP234 T00720028
                 =
2017-12-17 13:53 METAR KOXB 171853Z AUTO 20005KT 10SM CLR 08/02 A3022 RMK AO2 SLP232 T00830022 =
2017-12-17 12:53 METAR KOXB 171753Z AUTO 23006KT 10SM CLR 10/02 A3024 RMK AO2 SLP240 T01000017
                 10100 21017 56015 =
2017-12-17 11:53 METAR KOXB 171653Z AUTO 25005KT 10SM CLR 09/02 A3026 RMK AO2 SLP247 T00890017 =
2017-12-17 10:53 METAR KOXB 171553Z AUTO 21005KT 10SM CLR 07/01 A3027 RMK AO2 SLP249 T00720011 =
2017-12-17 09:53 METAR KOXB 171453Z AUTO 19004KT 10SM CLR 06/01 A3029 RMK AO2 SLP256 T00560011
                 53003 $ =

Support USWX by starting your Amazon purchase here.